Time;durP1;ratioP1;P1;durP2;ratioP2;P2;SDS_P1;SDS_P2;PMS_P1;PMS_P2;Temp;Humidity;BMP_temperature;BMP_pressure;BME280_temperature;BME280_humidity;BME280_pressure;Samples;Min_cycle;Max_cycle;Signal;HPM_P1;HPM_P2
2021/12/06 00:01:23;;;;;;;121.85;63.13;;;5.10;99.90;;;4.97;67.30;97788.41;6041073;23;20015;-82
2021/12/06 00:04:38;;;;;;;146.63;74.68;;;5.00;99.90;;;5.00;67.02;97776.34;6064894;23;20027;-82
2021/12/06 00:07:11;;;;;;;158.30;78.93;;;5.00;99.90;;;4.90;67.34;97777.09;6065306;23;20027;-82
2021/12/06 00:09:37;;;;;;;146.63;75.15;;;5.00;99.90;;;4.92;67.18;97777.66;6043176;23;20074;-82
2021/12/06 00:12:03;;;;;;;177.93;85.45;;;5.00;99.90;;;4.94;67.16;97774.72;6043205;23;20742;-83
2021/12/06 00:14:36;;;;;;;164.88;85.28;;;5.00;99.90;;;4.93;66.78;97768.50;6042415;23;20027;-82
2021/12/06 00:17:05;;;;;;;168.32;81.60;;;5.00;99.90;;;5.00;66.81;97768.28;6043907;23;20041;-82
2021/12/06 00:19:32;;;;;;;172.32;81.63;;;5.00;99.90;;;4.88;67.14;97765.78;6019784;23;20019;-83
2021/12/06 00:21:59;;;;;;;165.38;82.93;;;5.00;99.90;;;4.86;67.25;97778.72;6044163;23;20025;-82
2021/12/06 00:24:25;;;;;;;168.07;86.13;;;4.90;99.90;;;4.84;66.98;97777.34;6020615;23;20042;-82
2021/12/06 00:26:51;;;;;;;156.15;81.13;;;4.80;99.90;;;4.93;66.78;97776.56;6044394;23;20530;-82
2021/12/06 00:29:18;;;;;;;150.73;82.78;;;4.90;99.90;;;5.04;66.92;97780.13;6020308;23;20023;-83
2021/12/06 00:31:44;;;;;;;162.00;83.20;;;4.90;99.90;;;5.05;66.58;97770.97;6067108;23;20051;-83
2021/12/06 00:34:14;;;;;;;153.57;78.25;;;4.90;99.90;;;5.04;66.71;97776.59;6045872;23;20014;-83
2021/12/06 00:36:43;;;;;;;210.90;103.85;;;4.90;99.90;;;5.07;66.76;97771.53;6046597;23;20053;-83
2021/12/06 00:39:12;;;;;;;147.23;78.57;;;5.00;99.90;;;5.02;66.90;97766.13;6022252;23;20121;-83
2021/12/06 00:41:39;;;;;;;149.25;74.65;;;5.00;99.90;;;5.10;66.73;97767.50;6044726;23;20070;-83
2021/12/06 00:44:07;;;;;;;166.25;77.50;;;5.00;99.90;;;5.09;66.18;97771.25;6045324;23;20573;-83
2021/12/06 00:46:34;;;;;;;143.07;75.55;;;4.90;99.90;;;5.07;66.56;97770.72;6022570;23;20086;-83
2021/12/06 00:49:00;;;;;;;161.30;78.93;;;5.00;99.90;;;5.06;66.77;97769.91;6045088;23;20405;-83
2021/12/06 00:51:26;;;;;;;185.73;76.45;;;5.00;99.90;;;5.03;66.38;97777.69;6045243;23;20427;-80
2021/12/06 00:53:53;;;;;;;159.65;77.57;;;5.00;99.90;;;5.01;66.87;97775.25;6046777;23;20042;-80
2021/12/06 00:56:18;;;;;;;164.60;76.68;;;5.00;99.90;;;4.95;66.24;97777.13;6047036;23;20019;-80
2021/12/06 00:58:44;;;;;;;139.10;71.90;;;5.00;99.90;;;4.90;66.38;97766.34;6044858;23;20057;-81
2021/12/06 01:01:10;;;;;;;143.35;69.68;;;5.00;99.90;;;4.86;67.09;97778.72;6043969;23;20023;-80
2021/12/06 01:03:38;;;;;;;133.05;66.25;;;4.90;99.90;;;4.88;66.46;97776.53;6043266;23;20014;-80
2021/12/06 01:06:04;;;;;;;141.00;69.15;;;4.90;99.90;;;4.87;66.15;97774.94;6044189;23;20912;-81
2021/12/06 01:08:31;;;;;;;156.10;74.18;;;4.80;99.90;;;4.89;66.48;97775.50;6044144;23;20023;-81
2021/12/06 01:10:59;;;;;;;153.90;74.13;;;4.80;99.90;;;4.78;66.22;97777.31;6020350;23;20502;-81
2021/12/06 01:13:25;;;;;;;186.10;74.10;;;4.80;99.90;;;4.83;66.48;97776.53;6040570;23;20053;-81
2021/12/06 01:15:51;;;;;;;167.55;75.55;;;4.80;99.90;;;4.83;66.46;97787.25;6042125;23;20864;-81
2021/12/06 01:18:18;;;;;;;136.43;69.80;;;4.80;99.90;;;4.77;66.09;97794.50;6043895;23;20026;-81
2021/12/06 01:20:53;;;;;;;152.63;73.50;;;4.80;99.90;;;4.68;66.16;97792.56;6066836;23;20018;-81
2021/12/06 01:23:23;;;;;;;167.48;77.28;;;4.80;99.90;;;4.61;66.35;97792.81;6032965;23;20102;-80
2021/12/06 01:31:02;;;;;;;159.70;78.55;;;4.70;99.90;;;4.55;66.80;97783.91;6045582;23;21009;-81
2021/12/06 01:34:04;;;;;;;157.45;78.55;;;4.60;99.90;;;4.63;66.45;97785.31;6056900;23;20382;-81
2021/12/06 01:39:17;;;;;;;175.52;82.30;;;4.60;99.90;;;4.46;65.97;97760.47;6055696;23;20030;-81
2021/12/06 01:41:53;;;;;;;183.48;84.78;;;4.50;99.90;;;4.44;65.99;97760.72;6053729;23;20517;-81
2021/12/06 01:44:24;;;;;;;168.40;84.07;;;4.50;99.90;;;4.45;66.83;97766.91;6043538;23;20081;-81
2021/12/06 01:47:16;;;;;;;210.13;95.10;;;4.40;99.90;;;4.47;66.38;97765.59;5997445;23;20339;-81
2021/12/06 01:49:48;;;;;;;201.13;96.18;;;4.40;99.90;;;4.49;66.49;97759.97;6055395;23;20018;-81
2021/12/06 01:52:23;;;;;;;204.15;105.63;;;4.40;99.90;;;4.51;66.63;97760.50;6055837;23;20471;-80
2021/12/06 01:54:49;;;;;;;191.43;95.57;;;4.40;99.90;;;4.48;66.68;97753.78;6057082;23;20043;-80
2021/12/06 01:57:15;;;;;;;191.15;94.60;;;4.40;99.90;;;4.44;66.41;97750.00;6047956;23;20042;-81
2021/12/06 01:59:41;;;;;;;171.10;83.35;;;4.40;99.90;;;4.40;66.21;97761.50;6071906;23;20047;-81
2021/12/06 02:02:07;;;;;;;183.65;87.22;;;4.40;99.90;;;4.31;66.87;97761.19;6023997;23;20039;-81
2021/12/06 02:04:34;;;;;;;182.50;86.45;;;4.30;99.90;;;4.35;66.34;97768.47;6046249;23;20046;-80
2021/12/06 02:07:00;;;;;;;183.00;89.00;;;4.30;99.90;;;4.34;66.35;97758.78;6069735;23;20027;-81
2021/12/06 02:09:27;;;;;;;177.38;88.75;;;4.30;99.90;;;4.21;66.12;97758.44;6045774;23;20498;-80
2021/12/06 02:11:56;;;;;;;187.25;89.10;;;4.30;99.90;;;4.20;66.80;97760.31;6048442;23;20033;-80
2021/12/06 02:14:30;;;;;;;182.43;85.28;;;4.20;99.90;;;4.18;67.09;97751.72;6045058;23;20474;-80
2021/12/06 02:19:33;;;;;;;185.15;83.70;;;4.20;99.90;;;4.17;67.00;97768.06;6046909;23;20094;-81
2021/12/06 02:22:00;;;;;;;192.18;87.53;;;4.20;99.90;;;4.20;66.94;97772.91;6047658;23;20019;-81
2021/12/06 02:24:31;;;;;;;163.00;79.82;;;4.20;99.90;;;4.17;66.63;97776.09;6046352;23;20014;-80
2021/12/06 02:26:57;;;;;;;167.38;82.45;;;4.20;99.90;;;4.22;66.52;97787.69;6055468;23;20030;-80
2021/12/06 02:29:23;;;;;;;193.27;88.60;;;4.30;99.90;;;4.19;66.88;97785.53;6021887;23;20086;-81
2021/12/06 02:31:50;;;;;;;158.40;75.88;;;4.30;99.90;;;4.19;66.96;97772.09;6046557;23;20447;-81
2021/12/06 02:34:16;;;;;;;165.10;79.50;;;4.30;99.90;;;4.19;66.86;97782.84;6020059;23;20331;-80
2021/12/06 02:36:45;;;;;;;156.73;79.40;;;4.30;99.90;;;4.06;67.25;97775.22;6068524;23;20142;-80
2021/12/06 02:39:19;;;;;;;161.85;77.82;;;4.30;99.90;;;4.04;67.67;97775.47;6045594;23;20026;-80
2021/12/06 02:41:46;;;;;;;170.93;78.13;;;4.20;99.90;;;4.07;67.96;97774.97;6056531;23;20061;-80
2021/12/06 02:44:12;;;;;;;173.32;79.80;;;4.20;99.90;;;3.96;68.13;97778.63;6044685;23;20026;-80
2021/12/06 02:46:38;;;;;;;160.60;79.82;;;4.20;99.90;;;4.01;68.13;97786.72;6045178;23;20018;-83
2021/12/06 02:49:05;;;;;;;166.65;76.95;;;4.10;99.90;;;4.11;67.72;97799.44;6046170;23;20074;-82
2021/12/06 02:51:31;;;;;;;161.27;79.32;;;4.20;99.90;;;4.17;67.75;97792.22;6019787;23;20089;-82
2021/12/06 02:53:57;;;;;;;156.45;76.85;;;4.20;99.90;;;4.09;67.47;97791.63;6043466;23;20049;-82
2021/12/06 02:59:09;;;;;;;176.40;81.28;;;4.20;99.90;;;4.07;68.12;97799.13;6057368;23;20019;-82
2021/12/06 03:01:44;;;;;;;170.80;81.35;;;4.20;99.90;;;4.23;67.88;97797.38;6090484;23;20462;-82
2021/12/06 03:04:10;;;;;;;159.45;78.90;;;4.20;99.90;;;4.28;67.22;97799.28;6044487;23;20023;-82
2021/12/06 03:06:36;;;;;;;163.02;80.50;;;4.30;99.90;;;4.27;66.81;97794.97;6042075;23;20479;-82
2021/12/06 03:09:19;;;;;;;174.73;79.88;;;4.30;99.90;;;4.22;67.68;97792.25;6042246;23;20025;-80
2021/12/06 03:11:52;;;;;;;149.98;71.95;;;4.40;99.90;;;4.23;67.28;97794.69;6054463;23;20018;-80
2021/12/06 03:14:21;;;;;;;179.02;81.25;;;4.40;99.90;;;4.19;67.77;97784.72;6055658;23;20039;-80
2021/12/06 03:16:48;;;;;;;159.32;77.72;;;4.40;99.90;;;4.14;67.66;97790.84;6031316;23;20328;-80
2021/12/06 03:19:14;;;;;;;162.82;77.43;;;4.30;99.90;;;4.15;67.66;97795.19;6045784;23;20545;-80
2021/12/06 03:21:40;;;;;;;189.98;82.32;;;4.30;99.90;;;4.24;67.48;97785.56;6044969;23;20018;-80
2021/12/06 03:24:06;;;;;;;210.82;91.25;;;4.30;99.90;;;4.25;67.61;97794.41;6070120;23;20114;-80
2021/12/06 03:26:32;;;;;;;180.93;84.70;;;4.40;99.90;;;4.29;67.76;97780.22;6045515;23;20045;-81
2021/12/06 03:28:59;;;;;;;177.68;83.32;;;4.30;99.90;;;4.27;66.98;97786.91;6022034;23;20018;-82
2021/12/06 03:31:25;;;;;;;153.32;77.43;;;4.40;99.90;;;4.25;67.41;97781.84;6042401;23;20034;-82
2021/12/06 03:33:53;;;;;;;202.98;86.70;;;4.40;99.90;;;4.27;67.83;97776.19;6067858;23;20395;-83
2021/12/06 03:36:20;;;;;;;170.73;82.88;;;4.40;99.90;;;4.24;66.86;97766.78;6017907;23;20042;-82
2021/12/06 03:38:46;;;;;;;182.70;82.85;;;4.40;99.90;;;4.23;67.61;97767.03;6050935;23;20023;-82
2021/12/06 03:41:13;;;;;;;178.77;82.85;;;4.30;99.90;;;4.14;67.52;97759.44;6042966;23;20338;-82
2021/12/06 03:43:39;;;;;;;184.73;87.13;;;4.30;99.90;;;4.07;67.63;97766.09;6041659;23;20021;-83
2021/12/06 03:46:06;;;;;;;167.30;84.22;;;4.30;99.90;;;4.05;68.23;97765.56;6016926;23;20019;-83
2021/12/06 03:48:32;;;;;;;185.73;90.50;;;4.20;99.90;;;4.06;67.92;97753.75;6041638;23;20023;-83
2021/12/06 03:50:59;;;;;;;193.40;91.45;;;4.20;99.90;;;4.08;67.92;97763.16;6041430;23;20054;-82
2021/12/06 03:53:25;;;;;;;196.48;97.07;;;4.20;99.90;;;4.19;67.85;97769.41;6041744;23;20510;-82
2021/12/06 03:55:51;;;;;;;223.13;109.47;;;4.30;99.90;;;4.25;67.64;97778.31;6042265;23;20018;-82
2021/12/06 03:58:17;;;;;;;192.45;95.40;;;4.30;99.90;;;4.24;67.65;97772.13;6067816;23;20022;-82
2021/12/06 04:00:43;;;;;;;185.05;89.45;;;4.30;99.90;;;4.30;67.63;97767.59;6044231;23;20102;-82
2021/12/06 04:03:09;;;;;;;145.25;73.70;;;4.40;99.90;;;4.33;67.71;97765.22;6066708;23;20077;-83
2021/12/06 04:05:35;;;;;;;154.60;77.38;;;4.40;99.90;;;4.30;67.21;97770.28;6041471;23;20019;-82
2021/12/06 04:08:02;;;;;;;165.13;74.43;;;4.40;99.90;;;4.25;67.22;97771.09;6018584;23;20029;-82
2021/12/06 04:10:28;;;;;;;160.98;74.60;;;4.40;99.90;;;4.25;67.68;97776.47;6066654;23;20435;-82
2021/12/06 04:12:59;;;;;;;157.45;74.03;;;4.40;99.90;;;4.31;67.11;97777.31;6042593;23;20081;-82
2021/12/06 04:15:28;;;;;;;148.68;73.97;;;4.40;99.90;;;4.27;67.54;97770.81;6043950;23;20045;-82
2021/12/06 04:17:55;;;;;;;146.00;71.75;;;4.40;99.90;;;4.28;67.87;97773.25;6044406;23;20066;-82
2021/12/06 04:20:21;;;;;;;162.98;77.70;;;4.40;99.90;;;4.35;67.63;97783.75;6044286;23;20391;-81
2021/12/06 04:22:48;;;;;;;156.10;76.68;;;4.40;99.90;;;4.33;68.02;97791.28;6044426;23;20023;-82
2021/12/06 04:25:15;;;;;;;169.23;76.75;;;4.40;99.90;;;4.43;67.28;97798.59;6044102;23;20057;-82
2021/12/06 04:27:42;;;;;;;164.13;79.95;;;4.40;99.90;;;4.45;66.72;97799.97;6045858;23;20033;-82
2021/12/06 04:30:09;;;;;;;174.00;79.55;;;4.50;99.90;;;4.45;66.94;97807.19;6021685;23;20089;-82
2021/12/06 04:32:35;;;;;;;159.85;77.75;;;4.50;99.90;;;4.51;66.88;97809.66;6021061;23;20019;-82
2021/12/06 04:35:01;;;;;;;163.35;79.85;;;4.50;99.90;;;4.51;66.97;97811.53;6043737;23;20035;-82
2021/12/06 04:37:27;;;;;;;173.15;77.65;;;4.50;99.90;;;4.41;67.43;97803.41;6043429;23;20056;-82
2021/12/06 04:39:53;;;;;;;240.35;113.00;;;4.50;99.90;;;4.29;67.50;97803.59;6042965;23;20412;-82
2021/12/06 04:42:21;;;;;;;198.45;101.22;;;4.50;99.90;;;4.29;67.24;97800.91;6042638;23;20087;-82
2021/12/06 04:44:47;;;;;;;191.95;92.30;;;4.40;99.90;;;4.20;67.68;97807.81;6041602;23;20089;-82
2021/12/06 04:47:13;;;;;;;174.38;86.30;;;4.40;99.90;;;4.20;67.55;97814.00;6042593;23;20050;-82
2021/12/06 04:49:39;;;;;;;169.73;84.10;;;4.40;99.90;;;4.32;67.69;97821.88;6065909;23;20279;-82
2021/12/06 04:52:08;;;;;;;167.15;78.80;;;4.40;99.90;;;4.43;67.72;97823.56;6041240;23;20059;-82
2021/12/06 04:54:38;;;;;;;162.90;80.28;;;4.40;99.90;;;4.32;67.18;97813.81;6017984;23;20106;-82
2021/12/06 04:57:13;;;;;;;159.95;78.15;;;4.40;99.90;;;4.05;68.05;97811.19;6041650;23;20046;-82
2021/12/06 04:59:43;;;;;;;171.82;80.35;;;4.30;99.90;;;4.09;67.92;97820.34;6050520;23;20047;-82
2021/12/06 05:02:19;;;;;;;166.48;85.70;;;4.30;99.90;;;4.21;67.85;97809.44;6041222;23;20019;-83
2021/12/06 05:04:49;;;;;;;195.80;94.90;;;4.30;99.90;;;4.16;67.87;97817.44;6030460;23;20019;-83
2021/12/06 05:07:37;;;;;;;183.20;91.25;;;4.30;99.90;;;4.06;68.27;97816.28;6045155;23;20419;-82
2021/12/06 05:10:05;;;;;;;205.10;89.60;;;4.30;99.90;;;4.04;68.59;97812.25;6031235;23;20038;-82
2021/12/06 05:12:31;;;;;;;211.75;97.82;;;4.20;99.90;;;4.02;69.00;97825.94;6044165;23;20043;-82
2021/12/06 05:14:57;;;;;;;195.50;95.78;;;4.20;99.90;;;4.01;68.94;97826.97;6018907;23;20019;-82
2021/12/06 05:17:23;;;;;;;220.52;98.15;;;4.20;99.90;;;4.21;68.51;97836.28;6044433;23;20093;-83
2021/12/06 05:19:50;;;;;;;201.95;98.82;;;4.30;99.90;;;4.26;68.13;97845.19;6046386;23;20038;-83
2021/12/06 05:22:16;;;;;;;202.40;96.43;;;4.30;99.90;;;4.28;68.12;97858.34;6043446;23;20023;-82
2021/12/06 05:24:42;;;;;;;197.60;96.82;;;4.30;99.90;;;4.24;68.66;97858.03;6040744;23;20204;-82
2021/12/06 05:27:08;;;;;;;206.50;97.00;;;4.40;99.90;;;4.27;68.89;97867.47;6041792;23;20527;-82
2021/12/06 05:29:34;;;;;;;205.13;93.40;;;4.40;99.90;;;4.33;68.20;97866.47;6041453;23;20030;-82
2021/12/06 05:32:00;;;;;;;202.60;90.78;;;4.40;99.90;;;4.40;68.08;97863.53;6042190;23;20347;-82
2021/12/06 05:34:36;;;;;;;210.77;93.70;;;4.50;99.90;;;4.50;68.41;97864.44;6041530;23;20106;-82
2021/12/06 05:37:03;;;;;;;212.05;96.25;;;4.60;99.90;;;4.42;68.13;97874.84;6066600;23;20019;-82
2021/12/06 05:39:30;;;;;;;202.32;93.22;;;4.60;99.90;;;4.32;68.38;97879.03;6042698;23;20022;-82
2021/12/06 05:42:04;;;;;;;196.82;94.53;;;4.60;99.90;;;4.35;68.50;97875.03;6018821;23;20029;-82
2021/12/06 05:44:31;;;;;;;205.75;92.25;;;4.60;99.90;;;4.27;68.49;97875.50;6064964;23;20311;-82
2021/12/06 05:46:57;;;;;;;207.85;101.88;;;4.50;99.90;;;4.34;68.09;97863.50;6065298;23;20050;-82
2021/12/06 05:49:23;;;;;;;206.40;95.18;;;4.50;99.90;;;4.38;67.86;97873.75;6065423;23;20041;-82
2021/12/06 05:51:49;;;;;;;190.90;90.25;;;4.50;99.90;;;4.32;67.94;97868.31;6017441;23;20446;-82
2021/12/06 05:54:16;;;;;;;200.63;89.10;;;4.50;99.90;;;4.28;68.07;97863.72;6040844;23;20046;-82
2021/12/06 05:56:42;;;;;;;208.45;93.35;;;4.50;99.90;;;4.25;68.57;97861.53;6063798;23;20074;-82
2021/12/06 05:59:08;;;;;;;218.55;98.85;;;4.50;99.90;;;4.20;68.23;97874.91;5993546;23;20483;-82
2021/12/06 06:01:34;;;;;;;225.98;102.22;;;4.50;99.90;;;4.20;68.83;97877.59;6040639;23;20026;-82
2021/12/06 06:04:01;;;;;;;239.70;100.88;;;4.50;99.90;;;4.24;68.66;97881.41;6040989;23;20023;-82
2021/12/06 06:06:36;;;;;;;277.63;107.88;;;4.50;99.90;;;4.36;68.43;97879.34;6017739;23;20075;-82
2021/12/06 06:09:04;;;;;;;303.92;124.72;;;4.50;99.90;;;4.41;68.43;97882.09;6050610;23;20023;-82
2021/12/06 06:11:30;;;;;;;327.25;125.95;;;4.50;99.90;;;4.51;68.18;97874.13;6039195;23;20102;-82
2021/12/06 06:13:56;;;;;;;291.75;118.22;;;4.60;99.90;;;4.52;68.39;97877.59;6039190;23;20022;-82
2021/12/06 06:16:25;;;;;;;339.70;115.22;;;4.60;99.90;;;4.63;68.42;97883.84;6039010;23;20070;-82
2021/12/06 06:18:51;;;;;;;251.32;111.45;;;4.70;99.90;;;4.67;67.96;97876.91;6062778;23;20094;-80
2021/12/06 06:21:18;;;;;;;253.00;108.53;;;4.70;99.90;;;4.64;67.89;97885.50;6061911;23;20022;-80
2021/12/06 06:23:44;;;;;;;313.33;109.38;;;4.70;99.90;;;4.67;67.95;97887.66;6036385;23;20563;-80
2021/12/06 06:26:10;;;;;;;235.10;102.85;;;4.70;99.90;;;4.64;68.08;97896.25;6060144;23;20026;-80
2021/12/06 06:28:36;;;;;;;242.13;103.25;;;4.70;99.90;;;4.63;68.22;97891.91;6037567;23;20019;-80
2021/12/06 06:31:02;;;;;;;279.27;102.05;;;4.80;99.90;;;4.60;68.34;97887.88;6037145;23;20463;-80
2021/12/06 06:33:28;;;;;;;226.68;100.10;;;4.70;99.90;;;4.63;68.12;97881.16;6037901;23;20023;-81
2021/12/06 06:35:55;;;;;;;275.88;108.10;;;4.80;99.90;;;4.63;67.75;97891.91;6037876;23;20025;-81
2021/12/06 06:38:22;;;;;;;237.68;102.90;;;4.80;99.90;;;4.64;68.07;97888.19;6037542;23;20019;-81
2021/12/06 06:40:49;;;;;;;212.07;94.95;;;4.70;99.90;;;4.72;67.83;97895.75;6037868;23;20379;-81
2021/12/06 06:43:16;;;;;;;252.68;103.82;;;4.80;99.90;;;4.66;67.53;97902.16;6037184;23;20022;-81
2021/12/06 06:45:42;;;;;;;241.02;100.80;;;4.80;99.90;;;4.64;68.07;97909.66;6036871;23;20019;-81
2021/12/06 06:48:08;;;;;;;228.70;96.85;;;4.80;99.90;;;4.68;67.71;97910.75;6036811;23;20093;-81
2021/12/06 06:50:34;;;;;;;218.68;98.03;;;4.80;99.90;;;4.70;67.94;97925.56;6013719;23;20485;-81
2021/12/06 06:53:00;;;;;;;211.50;97.20;;;4.90;99.90;;;4.73;67.51;97918.84;6037643;23;20097;-81
2021/12/06 06:55:26;;;;;;;211.75;95.90;;;4.80;99.90;;;4.79;67.80;97920.53;6035303;23;20093;-81
2021/12/06 06:57:52;;;;;;;233.20;99.32;;;4.90;99.90;;;4.70;67.73;97930.13;6036822;23;20022;-81
2021/12/06 07:00:30;;;;;;;205.10;95.55;;;4.80;99.90;;;4.68;67.89;97943.81;6013919;23;20236;-81
2021/12/06 07:02:56;;;;;;;197.73;91.20;;;4.90;99.90;;;4.73;67.48;97948.41;6047949;23;20022;-81
2021/12/06 07:05:23;;;;;;;230.52;94.55;;;4.90;99.90;;;4.74;67.55;97948.16;6014361;23;20042;-81
2021/12/06 07:07:49;;;;;;;233.52;102.85;;;4.90;99.90;;;4.71;67.90;97939.81;6037632;23;20216;-81
2021/12/06 07:10:15;;;;;;;236.00;102.35;;;4.90;99.90;;;4.68;67.82;97949.19;6037325;23;20034;-81
2021/12/06 07:12:47;;;;;;;215.40;95.88;;;4.90;99.90;;;4.78;67.49;97956.50;6013843;23;20365;-81
2021/12/06 07:15:19;;;;;;;222.73;94.72;;;4.90;99.90;;;4.75;67.55;97955.16;6072676;23;20018;-81
2021/12/06 07:17:45;;;;;;;213.05;98.10;;;4.90;99.90;;;4.80;67.29;97957.06;6035904;23;20015;-81
2021/12/06 07:20:12;;;;;;;181.27;88.72;;;4.90;99.90;;;4.75;67.36;97954.34;6035969;23;20019;-81
2021/12/06 07:22:38;;;;;;;202.32;91.22;;;4.90;99.90;;;4.81;67.56;97955.19;6012217;23;20252;-81
2021/12/06 07:25:05;;;;;;;154.32;68.45;;;4.90;99.90;;;4.83;67.53;97951.16;6035705;23;20091;-81
2021/12/06 07:27:31;;;;;;;160.88;74.13;;;5.00;99.90;;;4.84;67.33;97958.19;6036158;23;20045;-81
2021/12/06 07:29:57;;;;;;;162.52;74.25;;;5.00;99.90;;;4.87;68.01;97954.97;6035643;23;20025;-81
2021/12/06 07:32:23;;;;;;;149.45;69.50;;;5.00;99.90;;;4.91;67.35;97958.78;6059972;23;20034;-82
2021/12/06 07:34:51;;;;;;;158.05;72.20;;;5.00;99.90;;;4.97;67.42;97960.44;6038446;23;20070;-81
2021/12/06 07:37:17;;;;;;;149.80;69.13;;;5.10;99.90;;;5.05;67.22;97963.72;6038383;23;20115;-79
2021/12/06 07:39:43;;;;;;;155.43;73.10;;;5.10;99.90;;;5.11;67.36;97957.28;6014380;23;20090;-79
2021/12/06 07:42:12;;;;;;;161.88;73.28;;;5.20;99.90;;;5.10;67.77;97958.38;6037762;23;20022;-79
2021/12/06 07:44:39;;;;;;;159.38;67.95;;;5.20;99.90;;;5.13;67.18;97957.84;6038142;23;20077;-79
2021/12/06 07:47:07;;;;;;;153.40;68.72;;;5.20;99.90;;;5.19;67.61;97962.19;6038284;23;20159;-81
2021/12/06 07:49:32;;;;;;;158.05;66.40;;;5.30;99.90;;;5.25;67.33;97957.66;6039278;23;20388;-81
2021/12/06 07:51:58;;;;;;;156.40;67.38;;;5.30;99.90;;;5.22;67.49;97959.78;6038838;23;20071;-81
2021/12/06 07:54:25;;;;;;;145.10;66.70;;;5.30;99.90;;;5.27;67.29;97959.03;6038650;23;20519;-82
2021/12/06 07:56:50;;;;;;;144.88;61.90;;;5.40;99.90;;;5.39;66.70;97958.81;6038258;23;20018;-81
2021/12/06 07:59:16;;;;;;;132.77;57.92;;;5.40;99.90;;;5.48;66.92;97962.63;6062983;23;20304;-82
2021/12/06 08:01:42;;;;;;;117.43;54.17;;;5.50;99.90;;;5.57;66.77;97962.94;5990933;23;20014;-81
2021/12/06 08:04:08;;;;;;;115.63;52.78;;;5.60;99.90;;;5.57;66.58;97965.63;6063003;23;20042;-82
2021/12/06 08:06:34;;;;;;;107.82;51.67;;;5.60;99.90;;;5.61;66.71;97972.13;6062726;23;20332;-81
2021/12/06 08:09:01;;;;;;;94.75;44.35;;;5.70;99.90;;;5.62;66.74;97963.78;6038932;23;20498;-81
2021/12/06 08:11:27;;;;;;;83.25;40.85;;;5.80;99.90;;;5.60;66.61;97971.31;6037910;23;20054;-81
2021/12/06 08:13:56;;;;;;;83.03;40.17;;;5.80;99.90;;;5.70;66.47;97969.72;6039064;23;20443;-82
2021/12/06 08:16:27;;;;;;;76.55;36.30;;;5.80;99.90;;;5.59;66.80;97963.50;6040474;23;20046;-81
2021/12/06 08:18:53;;;;;;;73.30;34.67;;;5.80;99.90;;;5.57;66.83;97969.16;6049539;23;20451;-82
2021/12/06 08:21:21;;;;;;;73.75;34.58;;;5.80;99.90;;;5.57;66.16;97976.38;6062346;23;20098;-82
2021/12/06 08:23:50;;;;;;;67.80;34.13;;;5.80;99.90;;;5.62;66.31;97976.41;6039525;23;20022;-79
2021/12/06 08:26:18;;;;;;;77.35;36.85;;;5.70;99.90;;;5.60;66.82;97981.28;6039980;23;20018;-81
2021/12/06 08:28:44;;;;;;;70.22;34.58;;;5.70;99.90;;;5.72;67.01;97986.41;6016210;23;20019;-81
2021/12/06 08:31:13;;;;;;;70.63;31.25;;;5.70;99.90;;;5.73;66.44;97991.56;6015343;23;20351;-81
2021/12/06 08:33:39;;;;;;;74.20;32.75;;;5.80;99.90;;;5.68;66.01;97991.53;6039723;23;20027;-81
2021/12/06 08:36:06;;;;;;;67.93;30.38;;;5.80;99.90;;;5.64;66.49;97990.41;6039057;23;20018;-81
2021/12/06 08:38:33;;;;;;;64.07;32.45;;;5.80;99.90;;;5.63;65.91;97986.13;6039134;23;20023;-81
2021/12/06 08:41:01;;;;;;;72.93;33.42;;;5.70;99.90;;;5.61;65.84;97993.63;6038903;23;20026;-81
2021/12/06 08:43:27;;;;;;;75.85;34.53;;;5.70;99.90;;;5.54;65.68;97995.75;6038777;23;20452;-81
2021/12/06 08:46:00;;;;;;;71.25;32.53;;;5.70;99.90;;;5.55;66.15;97986.63;6014596;23;20018;-81
2021/12/06 08:48:29;;;;;;;73.90;35.40;;;5.70;99.90;;;5.60;65.75;97992.84;6071841;23;20031;-81
2021/12/06 08:50:57;;;;;;;82.10;35.63;;;5.70;99.90;;;5.59;66.07;97999.25;6016443;23;20075;-81
2021/12/06 08:53:24;;;;;;;63.83;29.77;;;5.70;99.90;;;5.66;65.92;97997.16;6041419;23;20023;-79
2021/12/06 08:55:50;;;;;;;65.40;28.50;;;5.70;99.90;;;5.72;65.42;97997.19;6040823;23;20073;-79
2021/12/06 08:58:16;;;;;;;54.03;28.13;;;5.80;99.90;;;5.77;65.81;97998.00;6040704;23;20148;-79
2021/12/06 09:00:43;;;;;;;46.05;23.50;;;5.80;99.90;;;5.70;65.78;98004.69;6040925;23;20019;-81
2021/12/06 09:03:08;;;;;;;55.75;25.35;;;5.80;99.90;;;5.71;66.01;97999.06;6016673;23;20646;-81
2021/12/06 09:05:42;;;;;;;44.58;24.55;;;5.90;99.90;;;5.78;65.71;98002.34;6040701;23;20014;-81
2021/12/06 09:08:09;;;;;;;47.30;26.73;;;6.00;99.90;;;5.95;65.21;98014.81;6073283;23;20142;-81
2021/12/06 09:10:36;;;;;;;48.22;26.73;;;6.10;99.90;;;6.09;65.34;98010.56;6063176;23;20462;-82
2021/12/06 09:13:02;;;;;;;51.25;26.48;;;6.20;99.90;;;6.39;64.80;98009.06;6038971;23;20026;-79
2021/12/06 09:15:28;;;;;;;45.90;24.52;;;6.40;99.90;;;6.62;64.59;98003.16;6040690;23;20022;-79
2021/12/06 09:17:55;;;;;;;51.50;25.75;;;6.70;99.90;;;6.98;63.83;98013.19;6064119;23;20110;-79
2021/12/06 09:20:26;;;;;;;52.63;26.00;;;7.10;99.90;;;7.35;62.06;97996.69;6040493;23;20046;-79
2021/12/06 09:22:53;;;;;;;35.25;20.08;;;7.40;99.90;;;7.57;61.75;98002.59;6049840;23;20023;-79
2021/12/06 09:25:20;;;;;;;38.50;18.30;;;7.70;99.90;;;7.72;60.10;97999.03;6040223;23;20035;-79
2021/12/06 09:27:46;;;;;;;40.17;17.50;;;8.00;99.90;;;7.79;60.27;97999.56;6040471;23;20026;-80
2021/12/06 09:30:16;;;;;;;30.27;16.13;;;8.20;99.90;;;7.80;59.52;98001.16;6034805;23;20030;-79
2021/12/06 09:32:43;;;;;;;35.65;16.50;;;8.30;99.90;;;7.76;59.37;98007.38;6045034;23;20029;-79
2021/12/06 09:35:13;;;;;;;28.42;15.80;;;8.30;99.90;;;7.72;58.84;98011.75;6038951;23;20030;-79
2021/12/06 09:37:40;;;;;;;31.42;16.65;;;8.20;99.90;;;7.73;58.87;98010.66;6040280;23;20538;-79
2021/12/06 09:40:07;;;;;;;35.72;17.38;;;8.20;99.90;;;7.88;58.38;98012.50;6039014;23;20093;-79
2021/12/06 09:42:35;;;;;;;34.10;17.25;;;8.20;99.90;;;7.94;58.12;98006.00;6038850;23;20023;-82
2021/12/06 09:45:03;;;;;;;39.40;18.92;;;8.30;99.90;;;8.21;58.22;98011.81;6084927;23;20042;-82
2021/12/06 09:47:31;;;;;;;34.72;18.42;;;8.50;99.90;;;8.39;58.07;98018.50;6063138;23;20047;-80
2021/12/06 09:49:57;;;;;;;36.03;19.13;;;8.60;99.90;;;8.32;57.32;98012.59;6062378;23;20023;-79
2021/12/06 09:52:23;;;;;;;34.47;18.63;;;8.70;99.90;;;8.22;57.45;98021.56;6036183;23;20018;-81
2021/12/06 09:54:49;;;;;;;33.50;18.05;;;8.70;99.90;;;8.04;57.74;98017.56;6014430;23;20090;-81
2021/12/06 09:57:15;;;;;;;28.58;17.10;;;8.60;99.90;;;8.03;57.76;98012.44;6061879;23;20033;-81
2021/12/06 09:59:42;;;;;;;26.60;14.50;;;8.40;99.90;;;8.10;57.51;98006.75;6037740;23;20023;-81
2021/12/06 10:02:11;;;;;;;35.90;17.42;;;8.40;99.90;;;8.16;57.92;98002.94;6038288;23;20387;-81
2021/12/06 10:04:42;;;;;;;36.55;18.35;;;8.40;99.90;;;8.12;58.03;98001.88;6037528;23;20531;-81
2021/12/06 10:07:11;;;;;;;29.25;15.48;;;8.40;99.90;;;8.08;57.93;98012.41;6061853;23;20335;-81
2021/12/06 10:09:37;;;;;;;40.83;18.70;;;8.40;99.90;;;7.90;57.89;98013.03;6035903;23;20046;-81
2021/12/06 10:12:04;;;;;;;37.28;18.30;;;8.30;99.90;;;7.80;58.28;98006.56;6038280;23;20231;-81
2021/12/06 10:14:30;;;;;;;27.88;15.73;;;8.20;99.90;;;7.81;57.75;98000.09;6038904;23;20027;-81
2021/12/06 10:16:57;;;;;;;32.85;18.27;;;8.10;99.90;;;7.77;58.33;97995.53;6013633;23;20048;-80
2021/12/06 10:19:25;;;;;;;31.08;16.63;;;8.10;99.90;;;7.75;58.53;97993.09;6062716;23;20064;-80
2021/12/06 10:21:52;;;;;;;33.38;18.02;;;8.10;99.90;;;7.74;58.09;97994.19;6039479;23;20022;-80
2021/12/06 10:24:21;;;;;;;30.30;15.88;;;8.10;99.90;;;7.78;57.55;97989.03;6016092;23;20117;-80
2021/12/06 10:27:01;;;;;;;27.98;16.63;;;8.00;99.90;;;7.76;57.93;97996.59;6015702;23;20530;-80
2021/12/06 10:29:33;;;;;;;28.75;15.98;;;8.00;99.90;;;7.63;59.05;97989.06;6047738;23;20097;-80